sensor_id;sensor_type;location;lat;lon;timestamp;P1;durP1;ratioP1;P2;durP2;ratioP2
58446;SDS011;44240;51.840;7.258;2022-07-23T00:01:31;8.25;;;5.55;;
58446;SDS011;44240;51.840;7.258;2022-07-23T00:03:57;10.88;;;6.60;;
58446;SDS011;44240;51.840;7.258;2022-07-23T00:06:23;9.88;;;5.70;;
58446;SDS011;44240;51.840;7.258;2022-07-23T00:08:49;8.07;;;6.38;;
58446;SDS011;44240;51.840;7.258;2022-07-23T00:11:15;11.30;;;5.40;;
58446;SDS011;44240;51.840;7.258;2022-07-23T00:13:40;8.07;;;5.93;;
58446;SDS011;44240;51.840;7.258;2022-07-23T00:16:06;11.45;;;6.25;;
58446;SDS011;44240;51.840;7.258;2022-07-23T00:18:32;11.35;;;7.18;;
58446;SDS011;44240;51.840;7.258;2022-07-23T00:20:58;12.55;;;7.47;;
58446;SDS011;44240;51.840;7.258;2022-07-23T00:23:23;9.43;;;7.07;;
58446;SDS011;44240;51.840;7.258;2022-07-23T00:25:50;9.32;;;6.72;;
58446;SDS011;44240;51.840;7.258;2022-07-23T00:28:16;9.40;;;6.45;;
58446;SDS011;44240;51.840;7.258;2022-07-23T00:30:43;9.43;;;6.57;;
58446;SDS011;44240;51.840;7.258;2022-07-23T00:33:09;13.43;;;7.25;;
58446;SDS011;44240;51.840;7.258;2022-07-23T00:35:36;10.02;;;7.25;;
58446;SDS011;44240;51.840;7.258;2022-07-23T00:38:05;11.43;;;6.93;;
58446;SDS011;44240;51.840;7.258;2022-07-23T00:40:33;12.48;;;7.25;;
58446;SDS011;44240;51.840;7.258;2022-07-23T00:42:59;8.50;;;6.90;;
58446;SDS011;44240;51.840;7.258;2022-07-23T00:45:24;10.80;;;7.38;;
58446;SDS011;44240;51.840;7.258;2022-07-23T00:47:50;10.02;;;6.97;;
58446;SDS011;44240;51.840;7.258;2022-07-23T00:50:16;15.07;;;7.47;;
58446;SDS011;44240;51.840;7.258;2022-07-23T00:52:42;11.80;;;7.40;;
58446;SDS011;44240;51.840;7.258;2022-07-23T00:55:08;8.85;;;7.47;;
58446;SDS011;44240;51.840;7.258;2022-07-23T00:57:34;10.93;;;7.60;;
58446;SDS011;44240;51.840;7.258;2022-07-23T01:00:00;10.93;;;7.68;;
58446;SDS011;44240;51.840;7.258;2022-07-23T01:02:26;10.23;;;7.97;;
58446;SDS011;44240;51.840;7.258;2022-07-23T01:04:52;11.23;;;7.95;;
58446;SDS011;44240;51.840;7.258;2022-07-23T01:07:18;10.70;;;7.38;;
58446;SDS011;44240;51.840;7.258;2022-07-23T01:09:45;9.63;;;7.40;;
58446;SDS011;44240;51.840;7.258;2022-07-23T01:12:11;12.60;;;7.75;;
58446;SDS011;44240;51.840;7.258;2022-07-23T01:14:37;13.85;;;7.50;;
58446;SDS011;44240;51.840;7.258;2022-07-23T01:17:02;13.77;;;7.97;;
58446;SDS011;44240;51.840;7.258;2022-07-23T01:19:28;12.70;;;6.55;;
58446;SDS011;44240;51.840;7.258;2022-07-23T01:21:54;8.40;;;6.60;;
58446;SDS011;44240;51.840;7.258;2022-07-23T01:24:22;13.98;;;7.40;;
58446;SDS011;44240;51.840;7.258;2022-07-23T01:26:49;14.43;;;7.88;;
58446;SDS011;44240;51.840;7.258;2022-07-23T01:29:15;10.80;;;7.63;;
58446;SDS011;44240;51.840;7.258;2022-07-23T01:31:41;9.93;;;7.90;;
58446;SDS011;44240;51.840;7.258;2022-07-23T01:34:07;11.85;;;7.68;;
58446;SDS011;44240;51.840;7.258;2022-07-23T01:36:33;14.85;;;7.45;;
58446;SDS011;44240;51.840;7.258;2022-07-23T01:38:59;11.82;;;8.20;;
58446;SDS011;44240;51.840;7.258;2022-07-23T01:41:25;15.75;;;9.20;;
58446;SDS011;44240;51.840;7.258;2022-07-23T01:43:50;9.93;;;7.80;;
58446;SDS011;44240;51.840;7.258;2022-07-23T01:46:16;12.35;;;7.85;;
58446;SDS011;44240;51.840;7.258;2022-07-23T01:48:41;12.15;;;7.45;;
58446;SDS011;44240;51.840;7.258;2022-07-23T01:51:07;16.35;;;8.70;;
58446;SDS011;44240;51.840;7.258;2022-07-23T01:53:33;12.52;;;8.20;;
58446;SDS011;44240;51.840;7.258;2022-07-23T01:55:58;10.70;;;7.53;;
58446;SDS011;44240;51.840;7.258;2022-07-23T01:58:25;11.32;;;7.55;;
58446;SDS011;44240;51.840;7.258;2022-07-23T02:00:52;11.35;;;7.68;;
58446;SDS011;44240;51.840;7.258;2022-07-23T02:03:18;18.75;;;8.90;;
58446;SDS011;44240;51.840;7.258;2022-07-23T02:05:43;10.55;;;7.30;;
58446;SDS011;44240;51.840;7.258;2022-07-23T02:08:09;15.05;;;8.27;;
58446;SDS011;44240;51.840;7.258;2022-07-23T02:10:35;10.93;;;7.93;;
58446;SDS011;44240;51.840;7.258;2022-07-23T02:13:01;15.77;;;7.53;;
58446;SDS011;44240;51.840;7.258;2022-07-23T02:15:27;9.75;;;7.38;;
58446;SDS011;44240;51.840;7.258;2022-07-23T02:17:53;10.88;;;6.95;;
58446;SDS011;44240;51.840;7.258;2022-07-23T02:20:19;12.13;;;8.05;;
58446;SDS011;44240;51.840;7.258;2022-07-23T02:22:44;10.52;;;7.38;;
58446;SDS011;44240;51.840;7.258;2022-07-23T02:25:10;10.77;;;7.90;;
58446;SDS011;44240;51.840;7.258;2022-07-23T02:27:36;9.63;;;7.60;;
58446;SDS011;44240;51.840;7.258;2022-07-23T02:30:02;13.95;;;7.90;;
58446;SDS011;44240;51.840;7.258;2022-07-23T02:32:28;11.32;;;8.13;;
58446;SDS011;44240;51.840;7.258;2022-07-23T02:34:54;10.00;;;6.97;;
58446;SDS011;44240;51.840;7.258;2022-07-23T02:37:19;13.77;;;8.35;;
58446;SDS011;44240;51.840;7.258;2022-07-23T02:39:45;13.57;;;8.30;;
58446;SDS011;44240;51.840;7.258;2022-07-23T02:42:10;14.35;;;8.70;;
58446;SDS011;44240;51.840;7.258;2022-07-23T02:44:36;13.55;;;8.40;;
58446;SDS011;44240;51.840;7.258;2022-07-23T02:47:02;13.38;;;7.75;;
58446;SDS011;44240;51.840;7.258;2022-07-23T02:49:28;9.63;;;8.52;;
58446;SDS011;44240;51.840;7.258;2022-07-23T02:51:53;11.40;;;8.27;;
58446;SDS011;44240;51.840;7.258;2022-07-23T02:54:19;10.20;;;7.68;;
58446;SDS011;44240;51.840;7.258;2022-07-23T02:56:45;11.75;;;7.18;;
58446;SDS011;44240;51.840;7.258;2022-07-23T02:59:10;15.13;;;8.00;;
58446;SDS011;44240;51.840;7.258;2022-07-23T03:01:36;13.02;;;7.78;;
58446;SDS011;44240;51.840;7.258;2022-07-23T03:04:02;11.80;;;7.82;;
58446;SDS011;44240;51.840;7.258;2022-07-23T03:06:27;9.75;;;7.40;;
58446;SDS011;44240;51.840;7.258;2022-07-23T03:08:53;10.82;;;8.13;;
58446;SDS011;44240;51.840;7.258;2022-07-23T03:11:19;12.70;;;8.02;;
58446;SDS011;44240;51.840;7.258;2022-07-23T03:13:45;9.18;;;7.47;;
58446;SDS011;44240;51.840;7.258;2022-07-23T03:16:10;11.10;;;7.85;;
58446;SDS011;44240;51.840;7.258;2022-07-23T03:18:36;12.23;;;8.65;;
58446;SDS011;44240;51.840;7.258;2022-07-23T03:21:02;10.10;;;8.27;;
58446;SDS011;44240;51.840;7.258;2022-07-23T03:23:27;12.35;;;8.20;;
58446;SDS011;44240;51.840;7.258;2022-07-23T03:25:53;10.10;;;7.40;;
58446;SDS011;44240;51.840;7.258;2022-07-23T03:28:18;11.10;;;8.75;;
58446;SDS011;44240;51.840;7.258;2022-07-23T03:30:45;14.10;;;8.60;;
58446;SDS011;44240;51.840;7.258;2022-07-23T03:33:15;12.30;;;8.73;;
58446;SDS011;44240;51.840;7.258;2022-07-23T03:35:41;13.32;;;8.07;;
58446;SDS011;44240;51.840;7.258;2022-07-23T03:38:08;9.98;;;7.47;;
58446;SDS011;44240;51.840;7.258;2022-07-23T03:40:33;14.70;;;9.25;;
58446;SDS011;44240;51.840;7.258;2022-07-23T03:42:59;13.02;;;9.90;;
58446;SDS011;44240;51.840;7.258;2022-07-23T03:45:24;12.88;;;8.93;;
58446;SDS011;44240;51.840;7.258;2022-07-23T03:47:50;15.38;;;9.82;;
58446;SDS011;44240;51.840;7.258;2022-07-23T03:50:16;15.93;;;8.70;;
58446;SDS011;44240;51.840;7.258;2022-07-23T03:52:41;14.07;;;9.77;;
58446;SDS011;44240;51.840;7.258;2022-07-23T03:55:07;13.10;;;8.57;;
58446;SDS011;44240;51.840;7.258;2022-07-23T03:57:32;11.00;;;8.68;;
58446;SDS011;44240;51.840;7.258;2022-07-23T03:59:58;12.98;;;8.98;;
58446;SDS011;44240;51.840;7.258;2022-07-23T04:02:24;14.43;;;10.07;;
58446;SDS011;44240;51.840;7.258;2022-07-23T04:04:49;11.07;;;8.57;;
58446;SDS011;44240;51.840;7.258;2022-07-23T04:07:15;16.50;;;9.82;;
58446;SDS011;44240;51.840;7.258;2022-07-23T04:09:42;13.88;;;9.20;;
58446;SDS011;44240;51.840;7.258;2022-07-23T04:12:08;16.20;;;10.27;;
58446;SDS011;44240;51.840;7.258;2022-07-23T04:14:34;14.50;;;9.48;;
58446;SDS011;44240;51.840;7.258;2022-07-23T04:16:59;17.40;;;9.98;;
58446;SDS011;44240;51.840;7.258;2022-07-23T04:19:25;19.83;;;10.93;;
58446;SDS011;44240;51.840;7.258;2022-07-23T04:21:51;14.15;;;9.63;;
58446;SDS011;44240;51.840;7.258;2022-07-23T04:24:17;13.90;;;9.80;;
58446;SDS011;44240;51.840;7.258;2022-07-23T04:26:43;12.82;;;8.48;;
58446;SDS011;44240;51.840;7.258;2022-07-23T04:29:09;14.77;;;10.25;;
58446;SDS011;44240;51.840;7.258;2022-07-23T04:31:34;19.15;;;10.20;;
58446;SDS011;44240;51.840;7.258;2022-07-23T04:34:00;14.27;;;9.90;;
58446;SDS011;44240;51.840;7.258;2022-07-23T04:36:26;15.30;;;9.63;;
58446;SDS011;44240;51.840;7.258;2022-07-23T04:38:51;15.98;;;10.90;;
58446;SDS011;44240;51.840;7.258;2022-07-23T04:41:17;19.38;;;11.55;;
58446;SDS011;44240;51.840;7.258;2022-07-23T04:43:42;17.50;;;11.63;;
58446;SDS011;44240;51.840;7.258;2022-07-23T04:46:08;21.38;;;11.13;;
58446;SDS011;44240;51.840;7.258;2022-07-23T04:48:35;17.05;;;11.13;;
58446;SDS011;44240;51.840;7.258;2022-07-23T04:51:01;14.90;;;9.73;;
58446;SDS011;44240;51.840;7.258;2022-07-23T04:53:27;15.48;;;10.48;;
58446;SDS011;44240;51.840;7.258;2022-07-23T04:55:52;18.48;;;10.93;;
58446;SDS011;44240;51.840;7.258;2022-07-23T04:58:18;16.25;;;10.30;;
58446;SDS011;44240;51.840;7.258;2022-07-23T05:00:44;15.88;;;10.40;;
58446;SDS011;44240;51.840;7.258;2022-07-23T05:03:09;15.85;;;10.27;;
58446;SDS011;44240;51.840;7.258;2022-07-23T05:05:35;17.83;;;11.43;;
58446;SDS011;44240;51.840;7.258;2022-07-23T05:08:01;19.10;;;10.90;;
58446;SDS011;44240;51.840;7.258;2022-07-23T05:10:26;21.15;;;11.25;;
58446;SDS011;44240;51.840;7.258;2022-07-23T05:12:52;20.58;;;11.65;;
58446;SDS011;44240;51.840;7.258;2022-07-23T05:15:18;17.65;;;11.00;;
58446;SDS011;44240;51.840;7.258;2022-07-23T05:17:43;16.55;;;10.48;;
58446;SDS011;44240;51.840;7.258;2022-07-23T05:20:09;18.98;;;11.40;;
58446;SDS011;44240;51.840;7.258;2022-07-23T05:22:35;18.52;;;11.07;;
58446;SDS011;44240;51.840;7.258;2022-07-23T05:25:00;14.35;;;10.10;;
58446;SDS011;44240;51.840;7.258;2022-07-23T05:27:26;23.63;;;11.07;;
58446;SDS011;44240;51.840;7.258;2022-07-23T05:29:51;14.63;;;9.10;;
58446;SDS011;44240;51.840;7.258;2022-07-23T05:32:17;13.35;;;9.82;;
58446;SDS011;44240;51.840;7.258;2022-07-23T05:34:42;14.80;;;10.45;;
58446;SDS011;44240;51.840;7.258;2022-07-23T05:37:08;17.50;;;9.73;;
58446;SDS011;44240;51.840;7.258;2022-07-23T05:39:33;18.67;;;11.82;;
58446;SDS011;44240;51.840;7.258;2022-07-23T05:41:59;15.95;;;10.98;;
58446;SDS011;44240;51.840;7.258;2022-07-23T05:44:25;16.63;;;10.43;;
58446;SDS011;44240;51.840;7.258;2022-07-23T05:46:52;18.30;;;10.95;;
58446;SDS011;44240;51.840;7.258;2022-07-23T05:49:17;15.52;;;10.82;;
58446;SDS011;44240;51.840;7.258;2022-07-23T05:51:43;16.00;;;10.70;;
58446;SDS011;44240;51.840;7.258;2022-07-23T05:54:08;19.63;;;11.75;;
58446;SDS011;44240;51.840;7.258;2022-07-23T05:56:34;16.17;;;11.55;;
58446;SDS011;44240;51.840;7.258;2022-07-23T05:59:00;16.58;;;11.10;;
58446;SDS011;44240;51.840;7.258;2022-07-23T06:01:25;22.98;;;12.07;;
58446;SDS011;44240;51.840;7.258;2022-07-23T06:03:51;16.75;;;11.60;;
58446;SDS011;44240;51.840;7.258;2022-07-23T06:06:17;14.82;;;11.02;;
58446;SDS011;44240;51.840;7.258;2022-07-23T06:08:42;16.40;;;11.30;;
58446;SDS011;44240;51.840;7.258;2022-07-23T06:11:08;20.85;;;10.55;;
58446;SDS011;44240;51.840;7.258;2022-07-23T06:13:33;17.67;;;12.18;;
58446;SDS011;44240;51.840;7.258;2022-07-23T06:15:59;12.90;;;9.82;;
58446;SDS011;44240;51.840;7.258;2022-07-23T06:18:25;16.00;;;9.70;;
58446;SDS011;44240;51.840;7.258;2022-07-23T06:20:50;17.40;;;10.10;;
58446;SDS011;44240;51.840;7.258;2022-07-23T06:23:16;16.27;;;11.05;;
58446;SDS011;44240;51.840;7.258;2022-07-23T06:25:41;14.38;;;8.93;;
58446;SDS011;44240;51.840;7.258;2022-07-23T06:28:07;13.90;;;8.63;;
58446;SDS011;44240;51.840;7.258;2022-07-23T06:30:32;13.25;;;8.30;;
58446;SDS011;44240;51.840;7.258;2022-07-23T06:32:58;13.15;;;9.65;;
58446;SDS011;44240;51.840;7.258;2022-07-23T06:35:23;13.10;;;9.68;;
58446;SDS011;44240;51.840;7.258;2022-07-23T06:37:49;12.93;;;8.77;;
58446;SDS011;44240;51.840;7.258;2022-07-23T06:40:14;17.77;;;8.93;;
58446;SDS011;44240;51.840;7.258;2022-07-23T06:42:40;11.75;;;8.77;;
58446;SDS011;44240;51.840;7.258;2022-07-23T06:45:06;11.95;;;7.68;;
58446;SDS011;44240;51.840;7.258;2022-07-23T06:47:32;16.27;;;8.40;;
58446;SDS011;44240;51.840;7.258;2022-07-23T06:49:58;11.18;;;6.97;;
58446;SDS011;44240;51.840;7.258;2022-07-23T06:52:24;13.10;;;7.20;;
58446;SDS011;44240;51.840;7.258;2022-07-23T06:54:50;13.93;;;8.60;;
58446;SDS011;44240;51.840;7.258;2022-07-23T06:57:16;14.07;;;7.43;;
58446;SDS011;44240;51.840;7.258;2022-07-23T06:59:42;15.32;;;7.40;;
58446;SDS011;44240;51.840;7.258;2022-07-23T07:02:07;15.30;;;7.97;;
58446;SDS011;44240;51.840;7.258;2022-07-23T07:04:33;12.18;;;8.45;;
58446;SDS011;44240;51.840;7.258;2022-07-23T07:06:59;12.52;;;8.20;;
58446;SDS011;44240;51.840;7.258;2022-07-23T07:09:24;11.88;;;8.63;;
58446;SDS011;44240;51.840;7.258;2022-07-23T07:11:50;10.05;;;8.07;;
58446;SDS011;44240;51.840;7.258;2022-07-23T07:14:16;11.05;;;7.50;;
58446;SDS011;44240;51.840;7.258;2022-07-23T07:16:41;9.32;;;7.18;;
58446;SDS011;44240;51.840;7.258;2022-07-23T07:19:07;9.48;;;6.63;;
58446;SDS011;44240;51.840;7.258;2022-07-23T07:21:32;11.23;;;7.55;;
58446;SDS011;44240;51.840;7.258;2022-07-23T07:23:58;10.90;;;7.70;;
58446;SDS011;44240;51.840;7.258;2022-07-23T07:26:24;11.27;;;8.20;;
58446;SDS011;44240;51.840;7.258;2022-07-23T07:28:50;9.65;;;6.95;;
58446;SDS011;44240;51.840;7.258;2022-07-23T07:31:16;10.00;;;6.70;;
58446;SDS011;44240;51.840;7.258;2022-07-23T07:33:42;12.50;;;7.20;;
58446;SDS011;44240;51.840;7.258;2022-07-23T07:36:07;9.27;;;6.45;;
58446;SDS011;44240;51.840;7.258;2022-07-23T07:38:33;9.73;;;6.63;;
58446;SDS011;44240;51.840;7.258;2022-07-23T07:40:59;11.90;;;6.25;;
58446;SDS011;44240;51.840;7.258;2022-07-23T07:43:24;9.40;;;5.60;;
58446;SDS011;44240;51.840;7.258;2022-07-23T07:45:50;9.75;;;5.50;;
58446;SDS011;44240;51.840;7.258;2022-07-23T07:48:15;5.95;;;4.38;;
58446;SDS011;44240;51.840;7.258;2022-07-23T07:50:41;6.47;;;4.97;;
58446;SDS011;44240;51.840;7.258;2022-07-23T07:53:07;7.35;;;4.60;;
58446;SDS011;44240;51.840;7.258;2022-07-23T07:55:33;6.80;;;4.03;;
58446;SDS011;44240;51.840;7.258;2022-07-23T07:57:59;6.35;;;4.25;;
58446;SDS011;44240;51.840;7.258;2022-07-23T08:00:25;7.82;;;4.30;;
58446;SDS011;44240;51.840;7.258;2022-07-23T08:02:51;7.68;;;4.03;;
58446;SDS011;44240;51.840;7.258;2022-07-23T08:05:21;4.40;;;3.42;;
58446;SDS011;44240;51.840;7.258;2022-07-23T08:07:51;4.90;;;3.67;;
58446;SDS011;44240;51.840;7.258;2022-07-23T08:10:17;5.75;;;3.90;;
58446;SDS011;44240;51.840;7.258;2022-07-23T08:12:47;6.15;;;3.70;;
58446;SDS011;44240;51.840;7.258;2022-07-23T08:15:15;5.30;;;3.50;;
58446;SDS011;44240;51.840;7.258;2022-07-23T08:17:43;7.47;;;4.00;;
58446;SDS011;44240;51.840;7.258;2022-07-23T08:20:09;6.25;;;4.38;;
58446;SDS011;44240;51.840;7.258;2022-07-23T08:25:23;4.55;;;4.00;;
58446;SDS011;44240;51.840;7.258;2022-07-23T08:27:56;6.82;;;3.90;;
58446;SDS011;44240;51.840;7.258;2022-07-23T08:30:22;6.53;;;3.88;;
58446;SDS011;44240;51.840;7.258;2022-07-23T08:32:49;6.57;;;4.15;;
58446;SDS011;44240;51.840;7.258;2022-07-23T08:35:23;7.07;;;3.88;;
58446;SDS011;44240;51.840;7.258;2022-07-23T08:37:55;5.88;;;3.35;;
58446;SDS011;44240;51.840;7.258;2022-07-23T08:40:22;5.22;;;3.47;;
58446;SDS011;44240;51.840;7.258;2022-07-23T08:42:49;10.38;;;3.22;;
58446;SDS011;44240;51.840;7.258;2022-07-23T08:45:16;4.88;;;3.10;;
58446;SDS011;44240;51.840;7.258;2022-07-23T08:47:44;3.85;;;3.38;;
58446;SDS011;44240;51.840;7.258;2022-07-23T08:50:09;3.55;;;2.83;;
58446;SDS011;44240;51.840;7.258;2022-07-23T08:52:35;5.80;;;3.13;;
58446;SDS011;44240;51.840;7.258;2022-07-23T08:55:02;4.70;;;2.88;;
58446;SDS011;44240;51.840;7.258;2022-07-23T08:57:28;3.60;;;2.45;;
58446;SDS011;44240;51.840;7.258;2022-07-23T08:59:54;5.97;;;3.65;;
58446;SDS011;44240;51.840;7.258;2022-07-23T09:02:19;5.53;;;3.38;;
58446;SDS011;44240;51.840;7.258;2022-07-23T09:04:45;5.63;;;3.35;;
58446;SDS011;44240;51.840;7.258;2022-07-23T09:07:10;3.80;;;3.17;;
58446;SDS011;44240;51.840;7.258;2022-07-23T09:09:36;3.90;;;3.22;;
58446;SDS011;44240;51.840;7.258;2022-07-23T09:12:05;2.72;;;2.53;;
58446;SDS011;44240;51.840;7.258;2022-07-23T09:14:50;4.93;;;3.17;;
58446;SDS011;44240;51.840;7.258;2022-07-23T09:17:17;6.80;;;3.70;;
58446;SDS011;44240;51.840;7.258;2022-07-23T09:19:43;3.83;;;2.97;;
58446;SDS011;44240;51.840;7.258;2022-07-23T09:22:28;6.55;;;2.75;;
58446;SDS011;44240;51.840;7.258;2022-07-23T09:25:04;4.80;;;2.95;;
58446;SDS011;44240;51.840;7.258;2022-07-23T09:30:12;3.55;;;2.67;;
58446;SDS011;44240;51.840;7.258;2022-07-23T09:32:41;5.15;;;2.55;;
58446;SDS011;44240;51.840;7.258;2022-07-23T09:35:07;2.80;;;2.25;;
58446;SDS011;44240;51.840;7.258;2022-07-23T09:37:33;3.22;;;2.25;;
58446;SDS011;44240;51.840;7.258;2022-07-23T09:40:06;4.85;;;2.20;;
58446;SDS011;44240;51.840;7.258;2022-07-23T09:42:33;4.03;;;2.47;;
58446;SDS011;44240;51.840;7.258;2022-07-23T09:44:59;5.13;;;2.60;;
58446;SDS011;44240;51.840;7.258;2022-07-23T09:47:26;3.35;;;2.13;;
58446;SDS011;44240;51.840;7.258;2022-07-23T09:50:27;2.65;;;2.10;;
58446;SDS011;44240;51.840;7.258;2022-07-23T09:52:46;4.68;;;2.28;;
58446;SDS011;44240;51.840;7.258;2022-07-23T09:55:14;3.28;;;2.78;;
58446;SDS011;44240;51.840;7.258;2022-07-23T09:57:41;2.65;;;1.70;;
58446;SDS011;44240;51.840;7.258;2022-07-23T10:00:09;3.88;;;2.20;;
58446;SDS011;44240;51.840;7.258;2022-07-23T10:02:36;2.78;;;2.00;;
58446;SDS011;44240;51.840;7.258;2022-07-23T10:05:02;3.95;;;2.00;;
58446;SDS011;44240;51.840;7.258;2022-07-23T10:07:31;2.53;;;1.98;;
58446;SDS011;44240;51.840;7.258;2022-07-23T10:10:00;3.65;;;1.90;;
58446;SDS011;44240;51.840;7.258;2022-07-23T10:12:26;2.45;;;1.48;;
58446;SDS011;44240;51.840;7.258;2022-07-23T10:15:02;2.80;;;2.28;;
58446;SDS011;44240;51.840;7.258;2022-07-23T10:17:29;3.33;;;2.03;;
58446;SDS011;44240;51.840;7.258;2022-07-23T10:19:55;2.75;;;2.30;;
58446;SDS011;44240;51.840;7.258;2022-07-23T10:22:23;3.92;;;2.53;;
58446;SDS011;44240;51.840;7.258;2022-07-23T10:36:24;3.75;;;2.08;;
58446;SDS011;44240;51.840;7.258;2022-07-23T10:41:34;1.80;;;1.63;;
58446;SDS011;44240;51.840;7.258;2022-07-23T10:46:32;1.65;;;1.55;;
58446;SDS011;44240;51.840;7.258;2022-07-23T10:49:29;1.70;;;1.58;;
58446;SDS011;44240;51.840;7.258;2022-07-23T10:54:40;2.60;;;1.58;;
58446;SDS011;44240;51.840;7.258;2022-07-23T10:57:08;2.58;;;2.10;;
58446;SDS011;44240;51.840;7.258;2022-07-23T11:02:26;3.13;;;2.28;;
58446;SDS011;44240;51.840;7.258;2022-07-23T11:04:58;2.95;;;1.60;;
58446;SDS011;44240;51.840;7.258;2022-07-23T11:07:35;2.38;;;2.17;;
58446;SDS011;44240;51.840;7.258;2022-07-23T11:10:02;4.47;;;2.30;;
58446;SDS011;44240;51.840;7.258;2022-07-23T11:17:29;2.65;;;1.80;;
58446;SDS011;44240;51.840;7.258;2022-07-23T11:25:31;4.13;;;1.48;;
58446;SDS011;44240;51.840;7.258;2022-07-23T11:28:10;3.17;;;1.65;;
58446;SDS011;44240;51.840;7.258;2022-07-23T11:30:41;2.28;;;2.08;;
58446;SDS011;44240;51.840;7.258;2022-07-23T11:35:36;2.88;;;1.80;;
58446;SDS011;44240;51.840;7.258;2022-07-23T11:40:32;2.88;;;1.60;;
58446;SDS011;44240;51.840;7.258;2022-07-23T11:42:59;4.60;;;1.80;;
58446;SDS011;44240;51.840;7.258;2022-07-23T11:45:30;1.73;;;1.58;;
58446;SDS011;44240;51.840;7.258;2022-07-23T11:47:59;3.03;;;1.63;;
58446;SDS011;44240;51.840;7.258;2022-07-23T11:50:25;2.95;;;1.60;;
58446;SDS011;44240;51.840;7.258;2022-07-23T11:52:51;9.13;;;2.00;;
58446;SDS011;44240;51.840;7.258;2022-07-23T11:55:17;2.38;;;2.00;;
58446;SDS011;44240;51.840;7.258;2022-07-23T11:57:44;4.18;;;1.50;;
58446;SDS011;44240;51.840;7.258;2022-07-23T12:00:11;1.90;;;1.80;;
58446;SDS011;44240;51.840;7.258;2022-07-23T12:02:39;3.20;;;2.10;;
58446;SDS011;44240;51.840;7.258;2022-07-23T12:05:07;1.92;;;1.60;;
58446;SDS011;44240;51.840;7.258;2022-07-23T12:07:40;3.10;;;1.60;;
58446;SDS011;44240;51.840;7.258;2022-07-23T12:10:19;3.50;;;1.92;;
58446;SDS011;44240;51.840;7.258;2022-07-23T12:12:59;2.22;;;1.63;;
58446;SDS011;44240;51.840;7.258;2022-07-23T12:15:27;2.72;;;1.70;;
58446;SDS011;44240;51.840;7.258;2022-07-23T12:17:56;2.60;;;1.90;;
58446;SDS011;44240;51.840;7.258;2022-07-23T12:20:26;1.88;;;1.70;;
58446;SDS011;44240;51.840;7.258;2022-07-23T12:22:58;2.60;;;2.10;;
58446;SDS011;44240;51.840;7.258;2022-07-23T12:25:33;3.50;;;1.63;;
58446;SDS011;44240;51.840;7.258;2022-07-23T12:28:05;3.10;;;1.70;;
58446;SDS011;44240;51.840;7.258;2022-07-23T12:33:14;4.20;;;1.92;;
58446;SDS011;44240;51.840;7.258;2022-07-23T12:35:46;3.97;;;2.40;;
58446;SDS011;44240;51.840;7.258;2022-07-23T12:38:14;2.60;;;2.40;;
58446;SDS011;44240;51.840;7.258;2022-07-23T12:43:23;2.28;;;1.65;;
58446;SDS011;44240;51.840;7.258;2022-07-23T12:48:37;4.70;;;1.77;;
58446;SDS011;44240;51.840;7.258;2022-07-23T12:51:04;4.07;;;1.70;;
58446;SDS011;44240;51.840;7.258;2022-07-23T12:56:08;5.07;;;2.28;;
58446;SDS011;44240;51.840;7.258;2022-07-23T13:03:53;2.63;;;2.38;;
58446;SDS011;44240;51.840;7.258;2022-07-23T13:06:26;2.92;;;1.90;;
58446;SDS011;44240;51.840;7.258;2022-07-23T13:08:53;2.35;;;2.10;;
58446;SDS011;44240;51.840;7.258;2022-07-23T13:11:19;4.22;;;1.80;;
58446;SDS011;44240;51.840;7.258;2022-07-23T13:13:45;6.43;;;2.17;;
58446;SDS011;44240;51.840;7.258;2022-07-23T13:16:10;2.30;;;2.10;;
58446;SDS011;44240;51.840;7.258;2022-07-23T13:18:36;1.90;;;1.80;;
58446;SDS011;44240;51.840;7.258;2022-07-23T13:21:02;2.92;;;1.58;;
58446;SDS011;44240;51.840;7.258;2022-07-23T13:23:27;2.75;;;2.08;;
58446;SDS011;44240;51.840;7.258;2022-07-23T13:25:53;4.00;;;2.38;;
58446;SDS011;44240;51.840;7.258;2022-07-23T13:28:19;4.13;;;2.10;;
58446;SDS011;44240;51.840;7.258;2022-07-23T13:30:46;2.35;;;1.80;;
58446;SDS011;44240;51.840;7.258;2022-07-23T13:33:14;2.15;;;1.95;;
58446;SDS011;44240;51.840;7.258;2022-07-23T13:35:41;3.45;;;1.83;;
58446;SDS011;44240;51.840;7.258;2022-07-23T13:38:07;2.28;;;1.73;;
58446;SDS011;44240;51.840;7.258;2022-07-23T13:40:36;2.55;;;2.00;;
58446;SDS011;44240;51.840;7.258;2022-07-23T13:43:04;4.65;;;1.77;;
58446;SDS011;44240;51.840;7.258;2022-07-23T13:45:31;5.05;;;2.10;;
58446;SDS011;44240;51.840;7.258;2022-07-23T13:47:56;2.63;;;1.88;;
58446;SDS011;44240;51.840;7.258;2022-07-23T13:50:22;2.22;;;2.03;;
58446;SDS011;44240;51.840;7.258;2022-07-23T13:52:48;2.58;;;1.90;;
58446;SDS011;44240;51.840;7.258;2022-07-23T13:55:14;2.92;;;1.70;;
58446;SDS011;44240;51.840;7.258;2022-07-23T13:57:40;2.83;;;2.40;;
58446;SDS011;44240;51.840;7.258;2022-07-23T14:00:06;2.40;;;2.20;;
58446;SDS011;44240;51.840;7.258;2022-07-23T14:02:34;2.92;;;2.10;;
58446;SDS011;44240;51.840;7.258;2022-07-23T14:05:00;3.33;;;1.90;;
58446;SDS011;44240;51.840;7.258;2022-07-23T14:07:26;2.17;;;1.83;;
58446;SDS011;44240;51.840;7.258;2022-07-23T14:09:52;3.15;;;1.80;;
58446;SDS011;44240;51.840;7.258;2022-07-23T14:12:17;2.45;;;2.10;;
58446;SDS011;44240;51.840;7.258;2022-07-23T14:14:43;2.92;;;2.00;;
58446;SDS011;44240;51.840;7.258;2022-07-23T14:17:08;2.90;;;1.85;;
58446;SDS011;44240;51.840;7.258;2022-07-23T14:19:34;2.10;;;1.90;;
58446;SDS011;44240;51.840;7.258;2022-07-23T14:22:00;4.93;;;2.58;;
58446;SDS011;44240;51.840;7.258;2022-07-23T14:24:25;3.67;;;1.75;;
58446;SDS011;44240;51.840;7.258;2022-07-23T14:26:51;2.40;;;1.98;;
58446;SDS011;44240;51.840;7.258;2022-07-23T14:29:17;2.20;;;1.98;;
58446;SDS011;44240;51.840;7.258;2022-07-23T14:31:42;2.13;;;1.92;;
58446;SDS011;44240;51.840;7.258;2022-07-23T14:34:08;2.22;;;1.88;;
58446;SDS011;44240;51.840;7.258;2022-07-23T14:36:34;1.98;;;1.70;;
58446;SDS011;44240;51.840;7.258;2022-07-23T14:39:00;4.22;;;2.25;;
58446;SDS011;44240;51.840;7.258;2022-07-23T14:41:25;2.15;;;1.95;;
58446;SDS011;44240;51.840;7.258;2022-07-23T14:43:51;3.63;;;1.95;;
58446;SDS011;44240;51.840;7.258;2022-07-23T14:46:20;3.78;;;2.00;;
58446;SDS011;44240;51.840;7.258;2022-07-23T14:48:46;2.60;;;2.40;;
58446;SDS011;44240;51.840;7.258;2022-07-23T14:51:12;2.95;;;2.00;;
58446;SDS011;44240;51.840;7.258;2022-07-23T14:53:37;4.65;;;2.20;;
58446;SDS011;44240;51.840;7.258;2022-07-23T14:56:03;2.65;;;2.20;;
58446;SDS011;44240;51.840;7.258;2022-07-23T14:58:29;2.80;;;2.00;;
58446;SDS011;44240;51.840;7.258;2022-07-23T15:00:55;4.32;;;2.30;;
58446;SDS011;44240;51.840;7.258;2022-07-23T15:03:21;3.67;;;2.55;;
58446;SDS011;44240;51.840;7.258;2022-07-23T15:05:47;3.05;;;2.22;;
58446;SDS011;44240;51.840;7.258;2022-07-23T15:08:13;4.07;;;2.08;;
58446;SDS011;44240;51.840;7.258;2022-07-23T15:10:39;2.10;;;1.90;;
58446;SDS011;44240;51.840;7.258;2022-07-23T15:13:05;2.30;;;2.10;;
58446;SDS011;44240;51.840;7.258;2022-07-23T15:15:30;2.08;;;1.88;;
58446;SDS011;44240;51.840;7.258;2022-07-23T15:17:57;2.60;;;2.28;;
58446;SDS011;44240;51.840;7.258;2022-07-23T15:20:22;3.92;;;2.00;;
58446;SDS011;44240;51.840;7.258;2022-07-23T15:22:48;2.40;;;2.20;;
58446;SDS011;44240;51.840;7.258;2022-07-23T15:25:14;2.80;;;2.30;;
58446;SDS011;44240;51.840;7.258;2022-07-23T15:27:39;2.88;;;2.40;;
58446;SDS011;44240;51.840;7.258;2022-07-23T15:30:05;3.58;;;2.47;;
58446;SDS011;44240;51.840;7.258;2022-07-23T15:32:31;3.78;;;2.53;;
58446;SDS011;44240;51.840;7.258;2022-07-23T15:34:57;3.08;;;1.98;;
58446;SDS011;44240;51.840;7.258;2022-07-23T15:37:23;2.35;;;2.15;;